Time;durP1;ratioP1;P1;durP2;ratioP2;P2;SDS_P1;SDS_P2;PMS_P1;PMS_P2;Temp;Humidity;BMP_temperature;BMP_pressure;BME280_temperature;BME280_humidity;BME280_pressure;Samples;Min_cycle;Max_cycle;Signal;HPM_P1;HPM_P2
2023/08/27 00:00:08;;;;;;;1.10;0.73;;;17.90;99.90;;;;;;5056713;28;20456;-83
2023/08/27 00:02:35;;;;;;;1.40;1.10;;;17.80;99.90;;;;;;5059342;28;20493;-83
2023/08/27 00:05:04;;;;;;;0.93;0.80;;;17.70;99.90;;;;;;5063187;28;20465;-81
2023/08/27 00:07:31;;;;;;;1.43;0.87;;;17.60;99.90;;;;;;5062498;28;21167;-82
2023/08/27 00:09:58;;;;;;;1.30;1.00;;;17.60;99.90;;;;;;5062771;28;20477;-82
2023/08/27 00:12:25;;;;;;;0.80;0.60;;;17.60;99.90;;;;;;5062304;28;20494;-82
2023/08/27 00:14:52;;;;;;;1.23;1.13;;;17.60;99.90;;;;;;5066223;28;20955;-80
2023/08/27 00:17:19;;;;;;;1.17;1.07;;;17.50;99.90;;;;;;5061332;28;20541;-82
2023/08/27 00:19:46;;;;;;;2.03;0.93;;;17.40;99.90;;;;;;5065999;28;20980;-80
2023/08/27 00:22:15;;;;;;;1.07;0.90;;;17.40;99.90;;;;;;5061362;28;20441;-82
2023/08/27 00:24:42;;;;;;;1.10;0.87;;;17.40;99.90;;;;;;5064025;28;20576;-83
2023/08/27 00:27:08;;;;;;;1.80;0.90;;;17.40;99.90;;;;;;5063116;28;20573;-83
2023/08/27 00:29:35;;;;;;;1.43;0.90;;;17.30;99.90;;;;;;5065747;28;20459;-80
2023/08/27 00:32:02;;;;;;;3.80;1.03;;;17.40;99.90;;;;;;5061922;28;20933;-80
2023/08/27 00:34:33;;;;;;;1.00;0.80;;;17.40;99.90;;;;;;5062642;28;21012;-82
2023/08/27 00:37:00;;;;;;;5.17;1.00;;;17.30;99.90;;;;;;5063577;28;20547;-81
2023/08/27 00:39:29;;;;;;;1.23;1.13;;;17.20;99.90;;;;;;5063582;28;20531;-80
2023/08/27 00:41:56;;;;;;;1.30;0.97;;;17.30;99.90;;;;;;5066964;28;20452;-83
2023/08/27 00:44:23;;;;;;;1.00;0.87;;;17.40;99.90;;;;;;5062590;28;20600;-81
2023/08/27 00:46:51;;;;;;;0.97;0.73;;;17.40;99.90;;;;;;5061391;28;20537;-82
2023/08/27 00:49:18;;;;;;;1.40;1.17;;;17.40;99.90;;;;;;5062114;28;20468;-83
2023/08/27 00:51:47;;;;;;;1.13;0.63;;;17.50;99.90;;;;;;5064324;28;20452;-82
2023/08/27 00:54:14;;;;;;;2.80;1.17;;;17.50;99.90;;;;;;5062336;28;20492;-83
2023/08/27 00:56:44;;;;;;;1.00;0.87;;;17.50;99.90;;;;;;5064817;28;20987;-81
2023/08/27 00:59:12;;;;;;;1.23;1.13;;;17.50;99.90;;;;;;5062885;28;20456;-82
2023/08/27 01:01:40;;;;;;;0.90;0.90;;;17.60;99.90;;;;;;5059786;28;20471;-81
2023/08/27 01:04:07;;;;;;;1.53;0.77;;;17.70;99.90;;;;;;5069920;28;21438;-80
2023/08/27 01:06:35;;;;;;;1.13;1.03;;;17.70;99.90;;;;;;5059665;28;20494;-81
2023/08/27 01:09:09;;;;;;;1.73;0.73;;;17.70;99.90;;;;;;5055794;28;20517;-81
2023/08/27 01:11:46;;;;;;;1.60;0.80;;;17.70;99.90;;;;;;5061863;28;20917;-82
2023/08/27 01:14:17;;;;;;;3.03;1.50;;;17.80;99.90;;;;;;5065015;28;20432;-82
2023/08/27 01:16:45;;;;;;;1.10;1.00;;;17.70;99.90;;;;;;5063466;28;20464;-80
2023/08/27 01:19:14;;;;;;;2.07;1.90;;;17.70;99.90;;;;;;5066475;28;20489;-81
2023/08/27 01:21:43;;;;;;;1.30;0.90;;;17.60;99.90;;;;;;5063042;28;20462;-83
2023/08/27 01:24:10;;;;;;;3.60;1.07;;;17.50;99.90;;;;;;5064646;28;20456;-81
2023/08/27 01:26:45;;;;;;;1.20;0.93;;;17.30;99.90;;;;;;5053577;28;20476;-83
2023/08/27 01:29:24;;;;;;;1.47;0.80;;;17.20;99.90;;;;;;5056148;28;20513;-82
2023/08/27 01:32:00;;;;;;;1.87;0.80;;;17.20;99.90;;;;;;5059569;28;20836;-81
2023/08/27 01:34:28;;;;;;;0.63;0.63;;;17.00;99.90;;;;;;5063447;28;20516;-83
2023/08/27 01:36:57;;;;;;;1.13;0.87;;;16.90;99.90;;;;;;5058709;28;20514;-84
2023/08/27 01:39:24;;;;;;;8.93;1.30;;;16.90;99.90;;;;;;5065570;28;20455;-82
2023/08/27 01:41:52;;;;;;;2.83;1.97;;;16.90;99.90;;;;;;5051638;28;20559;-81
2023/08/27 01:44:19;;;;;;;2.97;1.20;;;16.90;99.90;;;;;;5056769;28;20534;-82
2023/08/27 01:46:46;;;;;;;1.97;1.77;;;16.80;99.90;;;;;;5060641;28;20487;-84
2023/08/27 01:49:13;;;;;;;1.57;1.20;;;16.70;99.90;;;;;;5064246;28;20455;-82
2023/08/27 01:51:40;;;;;;;2.73;2.47;;;16.60;99.90;;;;;;5069339;28;20444;-81
2023/08/27 01:54:08;;;;;;;1.40;1.10;;;16.60;99.90;;;;;;5069265;28;20488;-81
2023/08/27 01:56:35;;;;;;;2.50;1.57;;;16.60;99.90;;;;;;5054245;28;20488;-82
2023/08/27 01:59:02;;;;;;;1.87;1.23;;;16.50;99.90;;;;;;5050656;28;20461;-81
2023/08/27 02:01:29;;;;;;;0.83;0.83;;;16.40;99.90;;;;;;5056811;28;20464;-83
2023/08/27 02:03:57;;;;;;;2.63;2.27;;;16.50;99.90;;;;;;5054700;28;20523;-81
2023/08/27 02:06:24;;;;;;;4.50;2.37;;;16.50;99.90;;;;;;5056313;28;20543;-82
2023/08/27 02:08:51;;;;;;;1.80;1.60;;;16.50;99.90;;;;;;5059625;28;20509;-83
2023/08/27 02:11:19;;;;;;;1.07;0.80;;;16.40;99.90;;;;;;5059935;28;20861;-82
2023/08/27 02:13:46;;;;;;;1.30;1.20;;;16.50;99.90;;;;;;5068979;28;20925;-81
2023/08/27 02:16:13;;;;;;;1.37;0.80;;;16.40;99.90;;;;;;5064026;28;20534;-82
2023/08/27 02:18:40;;;;;;;2.20;1.10;;;16.40;99.90;;;;;;5062366;28;20491;-82
2023/08/27 02:21:08;;;;;;;3.23;1.57;;;16.40;99.90;;;;;;5058442;28;20440;-82
2023/08/27 02:23:34;;;;;;;3.93;1.70;;;16.40;99.90;;;;;;5056572;28;21076;-81
2023/08/27 02:26:02;;;;;;;3.47;2.30;;;16.30;99.90;;;;;;5061431;28;20847;-81
2023/08/27 02:28:32;;;;;;;4.93;1.70;;;16.20;99.90;;;;;;5061437;28;20498;-81
2023/08/27 02:31:00;;;;;;;1.50;1.27;;;16.20;99.90;;;;;;5062436;28;21059;-83
2023/08/27 02:33:27;;;;;;;2.13;1.10;;;16.20;99.90;;;;;;5065813;28;21359;-81
2023/08/27 02:35:53;;;;;;;4.70;1.50;;;16.10;99.90;;;;;;5066236;28;21226;-82
2023/08/27 02:38:20;;;;;;;2.20;1.23;;;16.20;99.90;;;;;;5067319;28;20464;-81
2023/08/27 02:40:47;;;;;;;1.77;1.20;;;16.10;99.90;;;;;;5058046;28;20453;-82
2023/08/27 02:43:14;;;;;;;1.80;1.17;;;16.20;99.90;;;;;;5063740;28;21088;-83
2023/08/27 02:45:43;;;;;;;1.80;1.20;;;16.10;99.90;;;;;;5070901;28;20439;-80
2023/08/27 02:48:10;;;;;;;2.43;1.63;;;16.10;99.90;;;;;;5069069;28;20483;-80
2023/08/27 02:50:37;;;;;;;2.13;2.00;;;16.10;99.90;;;;;;5051655;28;20464;-82
2023/08/27 02:53:04;;;;;;;4.13;1.77;;;16.00;99.90;;;;;;5063275;28;20488;-83
2023/08/27 02:55:32;;;;;;;1.53;1.43;;;16.10;99.90;;;;;;5054009;28;20495;-84
2023/08/27 02:57:59;;;;;;;2.80;1.27;;;16.10;99.90;;;;;;5065522;28;20470;-84
2023/08/27 03:00:26;;;;;;;3.33;1.83;;;16.00;99.90;;;;;;5057520;28;20439;-82
2023/08/27 03:02:54;;;;;;;2.37;2.17;;;16.00;99.90;;;;;;5050623;28;20484;-82
2023/08/27 03:05:21;;;;;;;1.80;1.23;;;16.00;99.90;;;;;;5057701;28;20577;-81
2023/08/27 03:07:48;;;;;;;1.73;1.60;;;16.00;99.90;;;;;;5059319;28;20483;-82
2023/08/27 03:10:16;;;;;;;6.30;2.43;;;15.90;99.90;;;;;;5067554;28;20439;-82
2023/08/27 03:12:43;;;;;;;3.33;2.43;;;15.90;99.90;;;;;;5062623;28;20439;-81
2023/08/27 03:15:10;;;;;;;2.73;2.50;;;16.00;99.90;;;;;;5059794;28;20532;-81
2023/08/27 03:17:37;;;;;;;2.73;2.50;;;15.90;99.90;;;;;;5064806;28;20448;-82
2023/08/27 03:20:06;;;;;;;3.70;3.40;;;15.90;99.90;;;;;;5066413;28;20451;-83
2023/08/27 03:22:33;;;;;;;2.53;2.33;;;15.90;99.90;;;;;;5066629;28;20479;-81
2023/08/27 03:25:01;;;;;;;3.30;3.00;;;15.90;99.90;;;;;;5054242;28;20529;-84
2023/08/27 03:27:29;;;;;;;3.80;3.47;;;15.90;99.90;;;;;;5065032;28;20493;-84
2023/08/27 03:29:57;;;;;;;4.30;3.90;;;15.90;99.90;;;;;;5059816;28;20514;-81
2023/08/27 03:32:24;;;;;;;11.63;5.00;;;15.90;99.90;;;;;;5061850;28;20452;-81
2023/08/27 03:34:51;;;;;;;4.97;4.10;;;15.90;99.90;;;;;;5061615;28;20461;-84
2023/08/27 03:37:19;;;;;;;6.13;4.50;;;16.00;99.90;;;;;;5056105;28;20444;-81
2023/08/27 03:39:46;;;;;;;6.40;5.80;;;15.90;99.90;;;;;;5063292;28;20542;-83
2023/08/27 03:42:13;;;;;;;8.70;7.80;;;15.90;99.90;;;;;;5067675;28;20467;-85
2023/08/27 03:44:40;;;;;;;8.07;6.20;;;16.00;99.90;;;;;;5061791;28;20444;-82
2023/08/27 03:47:07;;;;;;;7.17;6.47;;;15.90;99.90;;;;;;5063911;28;20479;-84
2023/08/27 03:49:34;;;;;;;9.30;6.80;;;15.90;99.90;;;;;;5065603;28;20462;-82
2023/08/27 03:52:01;;;;;;;7.47;5.63;;;16.00;99.90;;;;;;5064875;28;20493;-82
2023/08/27 03:54:30;;;;;;;8.70;7.77;;;16.00;99.90;;;;;;5056947;28;20516;-81
2023/08/27 03:56:57;;;;;;;11.33;6.70;;;16.00;99.90;;;;;;5062336;28;20470;-83
2023/08/27 03:59:24;;;;;;;11.63;5.70;;;16.00;99.90;;;;;;5048481;28;20472;-80
2023/08/27 04:01:52;;;;;;;8.60;7.60;;;15.90;99.90;;;;;;5064338;28;20830;-82
2023/08/27 04:04:19;;;;;;;10.03;7.77;;;15.90;99.90;;;;;;5054358;28;20895;-81
2023/08/27 04:06:46;;;;;;;9.93;7.97;;;15.90;99.90;;;;;;5059131;28;20458;-83
2023/08/27 04:09:13;;;;;;;10.27;7.33;;;15.90;99.90;;;;;;5058857;28;20471;-83
2023/08/27 04:11:42;;;;;;;9.00;7.30;;;16.00;99.90;;;;;;5061502;28;20538;-83
2023/08/27 04:14:08;;;;;;;11.20;7.77;;;16.00;99.90;;;;;;5056225;28;20531;-82
2023/08/27 04:16:35;;;;;;;9.20;8.30;;;15.90;99.90;;;;;;5055554;28;20441;-81
2023/08/27 04:19:03;;;;;;;8.50;6.60;;;15.90;99.90;;;;;;5067009;28;20447;-82
2023/08/27 04:21:30;;;;;;;9.83;6.73;;;15.90;99.90;;;;;;5063010;28;20868;-81
2023/08/27 04:23:57;;;;;;;10.20;9.10;;;15.90;99.90;;;;;;5063593;28;20463;-81
2023/08/27 04:26:25;;;;;;;10.80;8.00;;;15.90;99.90;;;;;;5061598;28;20467;-83
2023/08/27 04:28:54;;;;;;;10.07;6.83;;;16.00;99.90;;;;;;5068234;28;20546;-80
2023/08/27 04:31:22;;;;;;;9.43;7.00;;;16.00;99.90;;;;;;5073372;28;20482;-80
2023/08/27 04:33:48;;;;;;;6.60;6.00;;;16.00;99.90;;;;;;5064148;28;20456;-81
2023/08/27 04:36:15;;;;;;;7.40;6.70;;;15.90;99.90;;;;;;5062204;28;20470;-83
2023/08/27 04:38:42;;;;;;;6.67;5.97;;;15.90;99.90;;;;;;5050811;28;20501;-84
2023/08/27 04:41:09;;;;;;;9.90;6.17;;;16.00;99.90;;;;;;5058861;28;20459;-83
2023/08/27 04:43:36;;;;;;;7.20;6.47;;;16.00;99.90;;;;;;5059244;28;20984;-82
2023/08/27 04:46:04;;;;;;;8.00;6.97;;;16.00;99.90;;;;;;5061963;28;20444;-83
2023/08/27 04:48:32;;;;;;;7.13;6.43;;;16.10;99.90;;;;;;5064273;28;20633;-84
2023/08/27 04:50:59;;;;;;;8.13;5.97;;;16.00;99.90;;;;;;5055946;28;20465;-82
2023/08/27 04:53:27;;;;;;;6.80;5.67;;;16.10;99.90;;;;;;5051218;28;20506;-82
2023/08/27 04:55:54;;;;;;;6.97;5.97;;;16.10;99.90;;;;;;5051068;28;20466;-82
2023/08/27 04:58:21;;;;;;;8.10;5.93;;;16.10;99.90;;;;;;5054088;28;20539;-83
2023/08/27 05:00:49;;;;;;;6.23;5.63;;;16.30;99.90;;;;;;5054742;28;20533;-82
2023/08/27 05:03:17;;;;;;;7.90;5.70;;;16.30;99.90;;;;;;5060138;28;20566;-82
2023/08/27 05:05:44;;;;;;;5.83;5.33;;;16.40;99.90;;;;;;5057128;28;20463;-82
2023/08/27 05:08:11;;;;;;;6.33;5.73;;;16.40;99.90;;;;;;5060167;28;20482;-84
2023/08/27 05:10:38;;;;;;;9.53;6.20;;;16.40;99.90;;;;;;5062298;28;20517;-83
2023/08/27 05:13:05;;;;;;;6.87;5.00;;;16.40;99.90;;;;;;5062430;28;20443;-84
2023/08/27 05:15:32;;;;;;;7.10;6.47;;;16.40;99.90;;;;;;5063614;28;20877;-83
2023/08/27 05:17:59;;;;;;;6.33;5.83;;;16.40;99.90;;;;;;5066384;28;20447;-83
2023/08/27 05:20:27;;;;;;;6.70;5.40;;;16.50;99.90;;;;;;5060391;28;20491;-83
2023/08/27 05:22:54;;;;;;;7.30;6.60;;;16.50;99.90;;;;;;5071945;28;20521;-81
2023/08/27 05:25:21;;;;;;;5.10;4.20;;;16.50;99.90;;;;;;5067809;28;20443;-81
2023/08/27 05:27:48;;;;;;;6.20;5.60;;;16.50;99.90;;;;;;5060390;28;20577;-83
2023/08/27 05:30:15;;;;;;;4.60;4.20;;;16.60;99.90;;;;;;5064089;28;20439;-83
2023/08/27 05:32:43;;;;;;;5.33;4.93;;;16.60;99.90;;;;;;5061687;28;20443;-81
2023/08/27 05:35:10;;;;;;;3.77;3.40;;;16.60;99.90;;;;;;5051798;28;20989;-81
2023/08/27 05:37:38;;;;;;;5.27;4.37;;;16.60;99.90;;;;;;5054383;28;20980;-82
2023/08/27 05:40:06;;;;;;;5.00;4.30;;;16.60;99.90;;;;;;5053398;28;20484;-83
2023/08/27 05:42:33;;;;;;;5.13;4.33;;;16.50;99.90;;;;;;5063279;28;20463;-84
2023/08/27 05:45:00;;;;;;;6.20;4.87;;;16.50;99.90;;;;;;5064274;28;20868;-83
2023/08/27 05:47:27;;;;;;;6.93;5.17;;;16.40;99.90;;;;;;5067141;28;20503;-81
2023/08/27 05:49:54;;;;;;;5.47;3.40;;;16.40;99.90;;;;;;5057967;28;20463;-82
2023/08/27 05:52:22;;;;;;;4.27;3.87;;;16.40;99.90;;;;;;5063522;28;20927;-81
2023/08/27 05:54:50;;;;;;;6.47;5.23;;;16.50;99.90;;;;;;5061823;28;21260;-81
2023/08/27 05:57:18;;;;;;;6.20;4.30;;;16.60;99.90;;;;;;5065284;28;20853;-82
2023/08/27 05:59:45;;;;;;;5.80;5.20;;;16.80;99.90;;;;;;5062202;28;20933;-82
2023/08/27 06:02:13;;;;;;;5.40;4.43;;;17.00;99.90;;;;;;5063778;28;21037;-81
2023/08/27 06:04:40;;;;;;;3.80;3.50;;;17.20;99.90;;;;;;5060091;28;20462;-79
2023/08/27 06:07:09;;;;;;;4.93;3.90;;;17.20;99.90;;;;;;5057116;28;20521;-82
2023/08/27 06:09:36;;;;;;;5.37;4.17;;;17.40;99.90;;;;;;5057553;28;20477;-81
2023/08/27 06:12:06;;;;;;;4.80;3.80;;;17.50;99.90;;;;;;5063947;28;20452;-81
2023/08/27 06:14:33;;;;;;;4.67;3.23;;;17.40;99.90;;;;;;5056961;28;21398;-81
2023/08/27 06:17:00;;;;;;;4.10;3.70;;;17.60;99.90;;;;;;5057887;28;20517;-79
2023/08/27 06:19:27;;;;;;;5.50;5.00;;;17.60;99.90;;;;;;5066535;28;20444;-82
2023/08/27 06:21:53;;;;;;;4.10;3.53;;;17.60;99.90;;;;;;5054283;28;20464;-82
2023/08/27 06:24:20;;;;;;;5.03;4.43;;;17.70;99.90;;;;;;5061035;28;20468;-81
2023/08/27 06:26:47;;;;;;;6.70;4.97;;;17.70;99.90;;;;;;5057357;28;20995;-80
2023/08/27 06:29:16;;;;;;;8.03;5.37;;;17.60;99.90;;;;;;5065968;28;20478;-78
2023/08/27 06:31:43;;;;;;;6.10;4.80;;;17.50;99.90;;;;;;5061943;28;20456;-79
2023/08/27 06:34:10;;;;;;;8.23;5.80;;;17.50;99.90;;;;;;5055081;28;20927;-80
2023/08/27 06:36:37;;;;;;;7.03;6.07;;;17.60;99.90;;;;;;5056018;28;20480;-82
2023/08/27 06:39:05;;;;;;;7.43;5.90;;;17.70;99.90;;;;;;5068060;28;20562;-80
2023/08/27 06:41:31;;;;;;;11.37;6.47;;;17.90;99.90;;;;;;5067591;28;20459;-79
2023/08/27 06:43:58;;;;;;;5.87;5.13;;;18.10;99.90;;;;;;5056697;28;20448;-78
2023/08/27 06:46:27;;;;;;;7.00;5.07;;;18.30;99.90;;;;;;5063720;28;20456;-81
2023/08/27 06:48:54;;;;;;;7.23;5.50;;;18.50;99.90;;;;;;5067240;28;20541;-79
2023/08/27 06:51:20;;;;;;;5.67;5.13;;;18.70;99.90;;;;;;5059046;28;20456;-80
2023/08/27 06:53:47;;;;;;;5.40;4.87;;;18.90;99.90;;;;;;5063784;28;21022;-79
2023/08/27 06:56:14;;;;;;;10.23;6.77;;;19.30;99.90;;;;;;5062611;28;20498;-81
2023/08/27 06:58:41;;;;;;;5.80;5.27;;;19.40;99.90;;;;;;5064035;28;21068;-81
2023/08/27 07:01:08;;;;;;;5.53;4.73;;;19.20;99.90;;;;;;5063329;28;20622;-81
2023/08/27 07:03:37;;;;;;;3.60;3.30;;;19.20;99.90;;;;;;5059540;28;20466;-79
2023/08/27 07:06:05;;;;;;;7.30;5.60;;;18.90;99.90;;;;;;5061743;28;20471;-82
2023/08/27 07:08:32;;;;;;;6.97;5.40;;;18.80;99.90;;;;;;5071622;28;20487;-79
2023/08/27 07:10:59;;;;;;;7.20;4.13;;;19.10;99.90;;;;;;5065818;28;20525;-80
2023/08/27 07:13:26;;;;;;;7.90;3.73;;;19.40;99.90;;;;;;5066756;28;21003;-81
2023/08/27 07:15:53;;;;;;;4.27;3.00;;;19.90;99.90;;;;;;5068271;28;20459;-81
2023/08/27 07:18:23;;;;;;;7.90;4.87;;;20.00;99.90;;;;;;5060198;28;20993;-80
2023/08/27 07:20:52;;;;;;;5.90;4.10;;;19.90;99.90;;;;;;5066700;28;20983;-81
2023/08/27 07:23:19;;;;;;;4.57;4.20;;;19.70;99.90;;;;;;5066381;28;20757;-80
2023/08/27 07:25:46;;;;;;;6.63;3.87;;;19.50;99.90;;;;;;5059390;28;20478;-82
2023/08/27 07:28:13;;;;;;;3.93;3.57;;;19.60;99.90;;;;;;5063098;28;20492;-81
2023/08/27 07:30:40;;;;;;;4.10;3.47;;;19.50;99.90;;;;;;5067678;28;20490;-80
2023/08/27 07:33:07;;;;;;;3.63;3.30;;;19.50;99.90;;;;;;5057925;28;20467;-82
2023/08/27 07:35:34;;;;;;;3.53;2.93;;;19.40;99.90;;;;;;5061632;28;20434;-82
2023/08/27 07:38:02;;;;;;;3.57;3.27;;;19.20;99.90;;;;;;5061893;28;20488;-82
2023/08/27 07:40:34;;;;;;;3.50;3.20;;;19.00;99.90;;;;;;5059616;28;21444;-81
2023/08/27 07:43:01;;;;;;;2.80;2.60;;;18.90;99.90;;;;;;5064835;28;20542;-79
2023/08/27 07:45:28;;;;;;;3.43;3.13;;;18.80;99.90;;;;;;5054936;28;20474;-80
2023/08/27 07:47:55;;;;;;;4.63;3.70;;;18.70;99.90;;;;;;5062680;28;20539;-82
2023/08/27 07:50:22;;;;;;;4.23;3.93;;;18.70;99.90;;;;;;5059882;28;20521;-81
2023/08/27 07:52:50;;;;;;;4.43;4.03;;;18.80;99.90;;;;;;5066159;28;20456;-80
2023/08/27 07:55:18;;;;;;;6.00;4.63;;;18.80;99.90;;;;;;5066621;28;20467;-82
2023/08/27 07:57:45;;;;;;;5.00;4.50;;;18.80;99.90;;;;;;5059517;28;20479;-82
2023/08/27 08:00:14;;;;;;;5.30;4.27;;;18.80;99.90;;;;;;5059624;28;20465;-80
2023/08/27 08:02:41;;;;;;;5.20;4.80;;;18.80;99.90;;;;;;5066471;28;20558;-81
2023/08/27 08:05:09;;;;;;;6.20;5.60;;;18.80;99.90;;;;;;5065975;28;20536;-80
2023/08/27 08:07:36;;;;;;;4.60;4.20;;;18.90;99.90;;;;;;5062693;28;20529;-81
2023/08/27 08:10:04;;;;;;;4.93;4.53;;;18.90;99.90;;;;;;5049982;28;20600;-82
2023/08/27 08:12:32;;;;;;;6.83;4.40;;;19.00;99.90;;;;;;5057821;28;21021;-81
2023/08/27 08:14:59;;;;;;;3.87;3.50;;;18.90;99.90;;;;;;5063486;28;20458;-82
2023/08/27 08:17:26;;;;;;;3.93;3.70;;;19.00;99.90;;;;;;5064606;28;20521;-80
2023/08/27 08:19:53;;;;;;;6.10;4.63;;;18.90;99.90;;;;;;5066261;28;20965;-81
2023/08/27 08:22:21;;;;;;;4.63;4.33;;;18.90;99.90;;;;;;5068321;28;20472;-80
2023/08/27 08:24:48;;;;;;;5.37;4.87;;;18.90;99.90;;;;;;5066167;28;20437;-80
2023/08/27 08:27:15;;;;;;;6.37;4.90;;;19.00;99.90;;;;;;5066800;28;20450;-80
2023/08/27 08:29:43;;;;;;;8.13;6.97;;;18.90;99.90;;;;;;5065357;28;20485;-80
2023/08/27 08:32:10;;;;;;;8.70;7.80;;;18.90;99.90;;;;;;5064963;28;20864;-81
2023/08/27 08:34:37;;;;;;;7.60;6.13;;;18.90;99.90;;;;;;5065122;28;20447;-79
2023/08/27 08:37:04;;;;;;;9.80;8.80;;;18.90;99.90;;;;;;5066103;28;20492;-82
2023/08/27 08:39:31;;;;;;;11.60;9.30;;;18.90;99.90;;;;;;5065385;28;20846;-80
2023/08/27 08:42:09;;;;;;;12.60;10.20;;;18.80;99.90;;;;;;5064680;28;20493;-82
2023/08/27 08:44:46;;;;;;;12.13;10.57;;;18.80;99.90;;;;;;5065499;28;20476;-80
2023/08/27 08:47:17;;;;;;;11.37;10.13;;;18.80;99.90;;;;;;5063293;28;20537;-82
2023/08/27 08:49:45;;;;;;;13.77;10.73;;;18.60;99.90;;;;;;5066400;28;20507;-80
2023/08/27 08:52:17;;;;;;;13.10;11.00;;;18.70;99.90;;;;;;5063443;28;20535;-81
2023/08/27 08:54:47;;;;;;;11.87;10.67;;;18.60;99.90;;;;;;5060360;28;20522;-80
2023/08/27 08:57:15;;;;;;;12.53;9.93;;;18.60;99.90;;;;;;5062750;28;20440;-79
2023/08/27 08:59:42;;;;;;;11.50;9.80;;;18.60;99.90;;;;;;5060615;28;21035;-78
2023/08/27 09:02:12;;;;;;;10.37;9.40;;;18.60;99.90;;;;;;5062840;28;21037;-80
2023/08/27 09:04:41;;;;;;;8.73;7.80;;;18.60;99.90;;;;;;5062628;28;20528;-78
2023/08/27 09:07:08;;;;;;;9.50;8.23;;;18.60;99.90;;;;;;5060911;28;20546;-80
2023/08/27 09:09:37;;;;;;;10.73;9.63;;;18.70;99.90;;;;;;5063984;28;20539;-78
2023/08/27 09:12:05;;;;;;;11.37;8.80;;;18.60;99.90;;;;;;5060537;28;20536;-79
2023/08/27 09:14:32;;;;;;;10.90;9.00;;;18.60;99.90;;;;;;5062434;28;20441;-80
2023/08/27 09:16:59;;;;;;;9.70;8.40;;;18.60;99.90;;;;;;5064807;28;20949;-81
2023/08/27 09:19:26;;;;;;;11.10;9.10;;;18.60;99.90;;;;;;5059090;28;21246;-80
2023/08/27 09:21:55;;;;;;;12.60;8.17;;;18.70;99.90;;;;;;5065540;28;20529;-80
2023/08/27 09:24:22;;;;;;;12.70;8.77;;;18.90;99.90;;;;;;5059333;28;20541;-79
2023/08/27 09:26:48;;;;;;;12.40;8.60;;;18.80;99.90;;;;;;5062957;28;20529;-79
2023/08/27 09:29:18;;;;;;;14.57;10.50;;;18.90;99.90;;;;;;5062358;28;20483;-79
2023/08/27 09:31:45;;;;;;;11.43;9.20;;;18.90;99.90;;;;;;5059158;28;20453;-81
2023/08/27 09:34:14;;;;;;;13.50;8.63;;;19.00;99.90;;;;;;5061809;28;20440;-81
2023/08/27 09:36:41;;;;;;;7.97;7.17;;;19.00;99.90;;;;;;5061314;28;20898;-80
2023/08/27 09:39:11;;;;;;;12.23;9.00;;;18.90;99.90;;;;;;5051919;28;20908;-80
2023/08/27 09:41:39;;;;;;;11.20;8.33;;;18.90;99.90;;;;;;5056787;28;20521;-81
2023/08/27 09:44:07;;;;;;;12.00;8.37;;;18.90;99.90;;;;;;5064247;28;20449;-81
2023/08/27 09:46:35;;;;;;;8.93;6.63;;;19.00;99.90;;;;;;5065608;28;20478;-81
2023/08/27 09:49:04;;;;;;;9.20;6.47;;;19.10;99.90;;;;;;5065636;28;21080;-83
2023/08/27 09:51:32;;;;;;;6.07;5.17;;;19.10;99.90;;;;;;5065046;28;20463;-81
2023/08/27 09:54:00;;;;;;;4.13;3.77;;;19.00;99.90;;;;;;5055022;28;20553;-80
2023/08/27 09:56:29;;;;;;;4.30;2.77;;;19.10;99.90;;;;;;5057187;28;21146;-78
2023/08/27 09:58:57;;;;;;;3.93;2.10;;;19.10;99.90;;;;;;5055993;28;20792;-80
2023/08/27 10:01:25;;;;;;;2.93;2.70;;;19.30;99.90;;;;;;5059919;28;20517;-78
2023/08/27 10:03:53;;;;;;;3.30;2.87;;;19.40;99.90;;;;;;5061889;28;20459;-80
2023/08/27 10:06:20;;;;;;;2.70;2.07;;;19.70;99.90;;;;;;5054249;28;20448;-80
2023/08/27 10:08:50;;;;;;;2.73;2.23;;;19.80;99.90;;;;;;5063695;28;20447;-79
2023/08/27 10:11:17;;;;;;;2.67;1.77;;;19.80;99.90;;;;;;5053375;28;20465;-80
2023/08/27 10:13:46;;;;;;;2.80;1.77;;;20.10;99.90;;;;;;5062883;28;20476;-78
2023/08/27 10:16:14;;;;;;;1.53;1.43;;;20.20;99.90;;;;;;5055203;28;21141;-79
2023/08/27 10:18:41;;;;;;;1.53;1.30;;;20.30;99.90;;;;;;5059014;28;20465;-79
2023/08/27 10:21:10;;;;;;;1.87;1.43;;;20.40;99.90;;;;;;5054332;28;20489;-79
2023/08/27 10:23:39;;;;;;;1.20;1.10;;;20.40;99.90;;;;;;5061095;28;20458;-79
2023/08/27 10:26:07;;;;;;;1.60;1.17;;;20.40;99.90;;;;;;5061866;28;20448;-81
2023/08/27 10:28:35;;;;;;;2.67;1.70;;;20.40;99.90;;;;;;5059401;28;20462;-81
2023/08/27 10:31:03;;;;;;;1.17;1.07;;;20.50;99.90;;;;;;5066716;28;20973;-81
2023/08/27 10:33:30;;;;;;;4.50;2.33;;;20.40;99.90;;;;;;5060781;28;20523;-80
2023/08/27 10:36:02;;;;;;;2.00;1.83;;;20.20;99.90;;;;;;5064138;28;20447;-79
2023/08/27 10:38:32;;;;;;;1.30;1.10;;;20.20;99.90;;;;;;5057454;28;20815;-79
2023/08/27 10:41:02;;;;;;;0.90;0.90;;;20.30;99.90;;;;;;5067623;28;21030;-81
2023/08/27 10:43:33;;;;;;;1.10;1.00;;;20.40;99.90;;;;;;5062831;28;20461;-80
2023/08/27 10:46:11;;;;;;;0.87;0.87;;;20.50;99.90;;;;;;5062318;28;20457;-80
2023/08/27 10:48:39;;;;;;;1.43;1.00;;;21.00;99.90;;;;;;5068298;28;20449;-80
2023/08/27 10:51:14;;;;;;;0.77;0.77;;;21.50;99.90;;;;;;5068693;28;20471;-80
2023/08/27 10:53:42;;;;;;;1.13;0.73;;;21.80;99.90;;;;;;5067472;28;20470;-80
2023/08/27 10:56:37;;;;;;;0.80;0.63;;;22.00;99.90;;;;;;5069402;28;21027;-82
2023/08/27 10:59:09;;;;;;;1.03;0.90;;;22.30;99.90;;;;;;5067506;28;20451;-80
2023/08/27 11:01:38;;;;;;;1.03;0.63;;;22.70;99.90;;;;;;5067708;28;20483;-79
2023/08/27 11:04:06;;;;;;;7.10;0.93;;;22.50;99.90;;;;;;5065220;28;20540;-80
2023/08/27 11:06:40;;;;;;;2.60;0.70;;;22.10;99.90;;;;;;5068130;28;20602;-80
2023/08/27 11:09:18;;;;;;;0.57;0.57;;;22.00;99.90;;;;;;5069125;28;20451;-81
2023/08/27 11:11:49;;;;;;;0.60;0.53;;;21.60;99.90;;;;;;5069268;28;20446;-82
2023/08/27 11:14:17;;;;;;;0.60;0.60;;;21.50;99.90;;;;;;5067687;28;20498;-81
2023/08/27 11:16:46;;;;;;;1.03;0.60;;;21.60;99.90;;;;;;5069459;28;20543;-80
2023/08/27 11:19:13;;;;;;;0.50;0.50;;;21.80;99.90;;;;;;5063254;28;20456;-82
2023/08/27 11:21:41;;;;;;;0.60;0.50;;;22.30;99.90;;;;;;5068229;28;20495;-81
2023/08/27 11:24:17;;;;;;;2.60;0.83;;;22.70;99.90;;;;;;5060780;28;20514;-79
2023/08/27 11:26:44;;;;;;;0.60;0.53;;;23.10;99.90;;;;;;5064669;28;20949;-80
2023/08/27 11:29:12;;;;;;;1.10;0.60;;;23.20;99.90;;;;;;5066200;28;20915;-81
2023/08/27 11:31:40;;;;;;;0.60;0.60;;;23.20;99.90;;;;;;5060886;28;20460;-82
2023/08/27 11:34:11;;;;;;;0.80;0.60;;;23.40;99.90;;;;;;5069550;28;20460;-80
2023/08/27 11:36:39;;;;;;;0.50;0.40;;;23.40;99.90;;;;;;5058692;28;20518;-80
2023/08/27 11:39:07;;;;;;;0.70;0.60;;;23.60;99.90;;;;;;5064952;28;20509;-80
2023/08/27 11:41:36;;;;;;;0.60;0.40;;;23.30;99.90;;;;;;5059756;28;20506;-80
2023/08/27 11:44:03;;;;;;;0.60;0.43;;;23.40;99.90;;;;;;5065430;28;20462;-80
2023/08/27 11:46:31;;;;;;;0.53;0.50;;;23.30;99.90;;;;;;5062950;28;20493;-79
2023/08/27 11:48:58;;;;;;;0.67;0.53;;;23.30;99.90;;;;;;5063694;28;20451;-79
2023/08/27 11:51:27;;;;;;;0.50;0.40;;;23.60;99.90;;;;;;5057979;28;20479;-79
2023/08/27 11:53:54;;;;;;;0.57;0.50;;;23.70;99.90;;;;;;5055590;28;20480;-81
2023/08/27 11:56:22;;;;;;;0.40;0.30;;;23.70;99.90;;;;;;5062445;28;20501;-79
2023/08/27 11:58:53;;;;;;;0.73;0.40;;;23.20;99.90;;;;;;5057841;28;20461;-78
2023/08/27 12:01:21;;;;;;;0.60;0.50;;;23.20;99.90;;;;;;5058135;28;20492;-80
2023/08/27 12:03:49;;;;;;;0.60;0.40;;;22.90;99.90;;;;;;5059071;28;21017;-81
2023/08/27 12:06:24;;;;;;;0.87;0.50;;;22.60;99.90;;;;;;5061393;28;20889;-81
2023/08/27 12:08:54;;;;;;;0.87;0.47;;;22.60;99.90;;;;;;5064138;28;20794;-81
2023/08/27 12:11:26;;;;;;;0.57;0.57;;;22.80;99.90;;;;;;5063045;28;20484;-81
2023/08/27 12:13:57;;;;;;;0.53;0.50;;;23.00;99.90;;;;;;5065049;28;20463;-79
2023/08/27 12:16:31;;;;;;;2.27;0.50;;;23.00;99.90;;;;;;5062241;28;20935;-79
2023/08/27 12:19:03;;;;;;;0.97;0.50;;;23.00;99.90;;;;;;5061925;28;20439;-79
2023/08/27 12:21:34;;;;;;;0.70;0.40;;;22.70;99.90;;;;;;5054126;28;20522;-80
2023/08/27 12:24:02;;;;;;;0.53;0.40;;;22.60;99.90;;;;;;5062360;28;20448;-80
2023/08/27 12:26:31;;;;;;;0.60;0.50;;;22.40;99.90;;;;;;5056809;28;20489;-79
2023/08/27 12:28:58;;;;;;;0.50;0.50;;;22.10;99.90;;;;;;5059344;28;20566;-79
2023/08/27 12:31:26;;;;;;;0.60;0.50;;;22.20;99.90;;;;;;5060030;28;20518;-80
2023/08/27 12:33:58;;;;;;;0.50;0.40;;;22.10;99.90;;;;;;5065124;28;20510;-81
2023/08/27 12:36:25;;;;;;;0.83;0.73;;;22.00;99.90;;;;;;5063222;28;20445;-81
2023/08/27 12:38:53;;;;;;;0.60;0.40;;;22.10;99.90;;;;;;5049365;28;20463;-80
2023/08/27 12:41:23;;;;;;;1.80;0.60;;;22.00;99.90;;;;;;5052620;28;20548;-81
2023/08/27 12:43:52;;;;;;;1.17;0.53;;;21.80;99.90;;;;;;5064101;28;20943;-82
2023/08/27 12:46:19;;;;;;;0.60;0.60;;;21.60;99.90;;;;;;5061786;28;20463;-80
2023/08/27 12:48:47;;;;;;;1.43;0.50;;;21.60;99.90;;;;;;5066340;28;20447;-79